sensor_id;sensor_type;location;lat;lon;timestamp;P1;durP1;ratioP1;P2;durP2;ratioP2
65567;SDS011;52211;50.154;8.682;2023-06-26T00:01:36;4.37;;;3.97;;
65567;SDS011;52211;50.154;8.682;2023-06-26T00:04:06;5.77;;;4.67;;
65567;SDS011;52211;50.154;8.682;2023-06-26T00:06:36;4.63;;;4.23;;
65567;SDS011;52211;50.154;8.682;2023-06-26T00:09:05;4.23;;;3.80;;
65567;SDS011;52211;50.154;8.682;2023-06-26T00:11:34;4.10;;;3.70;;
65567;SDS011;52211;50.154;8.682;2023-06-26T00:14:05;4.87;;;4.37;;
65567;SDS011;52211;50.154;8.682;2023-06-26T00:16:42;5.07;;;4.57;;
65567;SDS011;52211;50.154;8.682;2023-06-26T00:19:09;4.20;;;3.90;;
65567;SDS011;52211;50.154;8.682;2023-06-26T00:21:40;5.07;;;4.47;;
65567;SDS011;52211;50.154;8.682;2023-06-26T00:24:13;4.23;;;3.83;;
65567;SDS011;52211;50.154;8.682;2023-06-26T00:26:41;5.77;;;4.87;;
65567;SDS011;52211;50.154;8.682;2023-06-26T00:29:17;4.80;;;4.33;;
65567;SDS011;52211;50.154;8.682;2023-06-26T00:31:44;5.73;;;4.80;;
65567;SDS011;52211;50.154;8.682;2023-06-26T00:34:11;4.63;;;4.20;;
65567;SDS011;52211;50.154;8.682;2023-06-26T00:36:44;5.23;;;4.67;;
65567;SDS011;52211;50.154;8.682;2023-06-26T00:39:14;4.97;;;4.47;;
65567;SDS011;52211;50.154;8.682;2023-06-26T00:41:41;4.90;;;4.50;;
65567;SDS011;52211;50.154;8.682;2023-06-26T00:44:10;5.43;;;4.93;;
65567;SDS011;52211;50.154;8.682;2023-06-26T00:46:39;5.27;;;3.87;;
65567;SDS011;52211;50.154;8.682;2023-06-26T00:49:10;6.67;;;4.47;;
65567;SDS011;52211;50.154;8.682;2023-06-26T00:51:40;4.57;;;3.97;;
65567;SDS011;52211;50.154;8.682;2023-06-26T00:54:07;4.90;;;4.50;;
65567;SDS011;52211;50.154;8.682;2023-06-26T00:56:36;5.47;;;4.97;;
65567;SDS011;52211;50.154;8.682;2023-06-26T00:59:08;4.77;;;4.23;;
65567;SDS011;52211;50.154;8.682;2023-06-26T01:01:37;4.97;;;4.53;;
65567;SDS011;52211;50.154;8.682;2023-06-26T01:04:04;4.40;;;4.00;;
65567;SDS011;52211;50.154;8.682;2023-06-26T01:06:32;6.40;;;4.37;;
65567;SDS011;52211;50.154;8.682;2023-06-26T01:09:05;4.13;;;3.73;;
65567;SDS011;52211;50.154;8.682;2023-06-26T01:11:34;4.40;;;4.07;;
65567;SDS011;52211;50.154;8.682;2023-06-26T01:14:06;4.50;;;4.10;;
65567;SDS011;52211;50.154;8.682;2023-06-26T01:16:33;5.43;;;4.67;;
65567;SDS011;52211;50.154;8.682;2023-06-26T01:19:02;5.17;;;4.67;;
65567;SDS011;52211;50.154;8.682;2023-06-26T01:21:40;5.33;;;4.83;;
65567;SDS011;52211;50.154;8.682;2023-06-26T01:24:16;4.73;;;4.30;;
65567;SDS011;52211;50.154;8.682;2023-06-26T01:26:48;5.27;;;4.57;;
65567;SDS011;52211;50.154;8.682;2023-06-26T01:29:27;5.37;;;4.27;;
65567;SDS011;52211;50.154;8.682;2023-06-26T01:32:01;5.23;;;4.73;;
65567;SDS011;52211;50.154;8.682;2023-06-26T01:34:28;5.20;;;4.70;;
65567;SDS011;52211;50.154;8.682;2023-06-26T01:36:58;5.90;;;5.30;;
65567;SDS011;52211;50.154;8.682;2023-06-26T01:39:27;3.83;;;3.53;;
65567;SDS011;52211;50.154;8.682;2023-06-26T01:41:56;5.10;;;4.60;;
65567;SDS011;52211;50.154;8.682;2023-06-26T01:44:29;5.37;;;4.87;;
65567;SDS011;52211;50.154;8.682;2023-06-26T01:47:08;4.67;;;4.27;;
65567;SDS011;52211;50.154;8.682;2023-06-26T01:50:09;5.50;;;4.90;;
65567;SDS011;52211;50.154;8.682;2023-06-26T01:55:42;5.70;;;4.90;;
65567;SDS011;52211;50.154;8.682;2023-06-26T01:58:25;5.83;;;4.27;;
65567;SDS011;52211;50.154;8.682;2023-06-26T02:00:54;5.17;;;4.67;;
65567;SDS011;52211;50.154;8.682;2023-06-26T02:03:21;6.13;;;4.83;;
65567;SDS011;52211;50.154;8.682;2023-06-26T02:05:50;7.63;;;5.90;;
65567;SDS011;52211;50.154;8.682;2023-06-26T02:08:25;5.27;;;4.77;;
65567;SDS011;52211;50.154;8.682;2023-06-26T02:10:55;4.93;;;4.43;;
65567;SDS011;52211;50.154;8.682;2023-06-26T02:13:24;5.43;;;4.93;;
65567;SDS011;52211;50.154;8.682;2023-06-26T02:15:54;5.90;;;5.23;;
65567;SDS011;52211;50.154;8.682;2023-06-26T02:18:25;5.13;;;4.63;;
65567;SDS011;52211;50.154;8.682;2023-06-26T02:20:59;5.07;;;4.57;;
65567;SDS011;52211;50.154;8.682;2023-06-26T02:23:26;5.63;;;4.60;;
65567;SDS011;52211;50.154;8.682;2023-06-26T02:25:55;4.90;;;4.40;;
65567;SDS011;52211;50.154;8.682;2023-06-26T02:28:27;6.10;;;4.27;;
65567;SDS011;52211;50.154;8.682;2023-06-26T02:30:53;5.10;;;4.60;;
65567;SDS011;52211;50.154;8.682;2023-06-26T02:33:23;5.50;;;4.90;;
65567;SDS011;52211;50.154;8.682;2023-06-26T02:35:50;5.17;;;4.67;;
65567;SDS011;52211;50.154;8.682;2023-06-26T02:38:22;5.90;;;4.87;;
65567;SDS011;52211;50.154;8.682;2023-06-26T02:40:49;4.90;;;4.43;;
65567;SDS011;52211;50.154;8.682;2023-06-26T02:43:18;5.30;;;4.80;;
65567;SDS011;52211;50.154;8.682;2023-06-26T02:45:47;6.10;;;4.50;;
65567;SDS011;52211;50.154;8.682;2023-06-26T02:48:14;6.17;;;5.50;;
65567;SDS011;52211;50.154;8.682;2023-06-26T02:50:42;5.57;;;5.07;;
65567;SDS011;52211;50.154;8.682;2023-06-26T02:53:13;5.57;;;5.03;;
65567;SDS011;52211;50.154;8.682;2023-06-26T02:55:46;5.10;;;4.60;;
65567;SDS011;52211;50.154;8.682;2023-06-26T02:58:17;5.00;;;4.60;;
65567;SDS011;52211;50.154;8.682;2023-06-26T03:00:44;5.23;;;4.73;;
65567;SDS011;52211;50.154;8.682;2023-06-26T03:03:18;4.87;;;4.30;;
65567;SDS011;52211;50.154;8.682;2023-06-26T03:05:45;5.30;;;4.77;;
65567;SDS011;52211;50.154;8.682;2023-06-26T03:08:19;4.87;;;4.47;;
65567;SDS011;52211;50.154;8.682;2023-06-26T03:10:48;6.43;;;4.80;;
65567;SDS011;52211;50.154;8.682;2023-06-26T03:13:15;5.10;;;4.63;;
65567;SDS011;52211;50.154;8.682;2023-06-26T03:15:43;5.37;;;4.87;;
65567;SDS011;52211;50.154;8.682;2023-06-26T03:18:10;5.80;;;5.07;;
65567;SDS011;52211;50.154;8.682;2023-06-26T03:20:37;4.63;;;4.17;;
65567;SDS011;52211;50.154;8.682;2023-06-26T03:23:08;6.37;;;4.90;;
65567;SDS011;52211;50.154;8.682;2023-06-26T03:25:38;4.77;;;4.37;;
65567;SDS011;52211;50.154;8.682;2023-06-26T03:28:24;5.47;;;4.97;;
65567;SDS011;52211;50.154;8.682;2023-06-26T03:30:53;5.80;;;4.97;;
65567;SDS011;52211;50.154;8.682;2023-06-26T03:33:25;5.30;;;4.80;;
65567;SDS011;52211;50.154;8.682;2023-06-26T03:35:56;5.00;;;4.60;;
65567;SDS011;52211;50.154;8.682;2023-06-26T03:38:26;4.80;;;4.37;;
65567;SDS011;52211;50.154;8.682;2023-06-26T03:40:58;5.30;;;4.80;;
65567;SDS011;52211;50.154;8.682;2023-06-26T03:43:25;5.90;;;4.90;;
65567;SDS011;52211;50.154;8.682;2023-06-26T03:46:07;5.93;;;5.37;;
65567;SDS011;52211;50.154;8.682;2023-06-26T03:48:37;5.20;;;4.70;;
65567;SDS011;52211;50.154;8.682;2023-06-26T03:51:04;5.97;;;5.40;;
65567;SDS011;52211;50.154;8.682;2023-06-26T03:53:35;6.07;;;5.47;;
65567;SDS011;52211;50.154;8.682;2023-06-26T03:56:02;6.03;;;5.43;;
65567;SDS011;52211;50.154;8.682;2023-06-26T03:58:32;5.90;;;4.83;;
65567;SDS011;52211;50.154;8.682;2023-06-26T04:01:01;5.43;;;4.90;;
65567;SDS011;52211;50.154;8.682;2023-06-26T04:03:30;5.73;;;5.13;;
65567;SDS011;52211;50.154;8.682;2023-06-26T04:06:00;5.93;;;5.17;;
65567;SDS011;52211;50.154;8.682;2023-06-26T04:08:27;5.97;;;5.40;;
65567;SDS011;52211;50.154;8.682;2023-06-26T04:10:54;7.47;;;5.70;;
65567;SDS011;52211;50.154;8.682;2023-06-26T04:13:25;6.30;;;5.70;;
65567;SDS011;52211;50.154;8.682;2023-06-26T04:15:59;6.20;;;4.97;;
65567;SDS011;52211;50.154;8.682;2023-06-26T04:18:25;6.20;;;5.60;;
65567;SDS011;52211;50.154;8.682;2023-06-26T04:21:08;5.93;;;5.23;;
65567;SDS011;52211;50.154;8.682;2023-06-26T04:23:45;6.13;;;5.23;;
65567;SDS011;52211;50.154;8.682;2023-06-26T04:26:17;6.80;;;6.10;;
65567;SDS011;52211;50.154;8.682;2023-06-26T04:28:46;6.20;;;5.60;;
65567;SDS011;52211;50.154;8.682;2023-06-26T04:31:16;6.23;;;5.63;;
65567;SDS011;52211;50.154;8.682;2023-06-26T04:33:45;5.83;;;5.23;;
65567;SDS011;52211;50.154;8.682;2023-06-26T04:36:17;6.13;;;5.53;;
65567;SDS011;52211;50.154;8.682;2023-06-26T04:38:46;5.87;;;5.37;;
65567;SDS011;52211;50.154;8.682;2023-06-26T04:41:16;5.53;;;4.73;;
65567;SDS011;52211;50.154;8.682;2023-06-26T04:43:47;6.67;;;5.97;;
65567;SDS011;52211;50.154;8.682;2023-06-26T04:46:17;5.87;;;5.27;;
65567;SDS011;52211;50.154;8.682;2023-06-26T04:48:48;6.67;;;5.60;;
65567;SDS011;52211;50.154;8.682;2023-06-26T04:51:18;7.93;;;5.63;;
65567;SDS011;52211;50.154;8.682;2023-06-26T04:53:47;6.60;;;5.30;;
65567;SDS011;52211;50.154;8.682;2023-06-26T04:56:16;6.60;;;5.90;;
65567;SDS011;52211;50.154;8.682;2023-06-26T04:58:43;6.33;;;5.73;;
65567;SDS011;52211;50.154;8.682;2023-06-26T05:01:10;6.57;;;5.93;;
65567;SDS011;52211;50.154;8.682;2023-06-26T05:03:39;5.80;;;5.30;;
65567;SDS011;52211;50.154;8.682;2023-06-26T05:06:06;6.27;;;5.67;;
65567;SDS011;52211;50.154;8.682;2023-06-26T05:08:37;5.53;;;5.03;;
65567;SDS011;52211;50.154;8.682;2023-06-26T05:11:04;5.90;;;5.37;;
65567;SDS011;52211;50.154;8.682;2023-06-26T05:13:33;5.73;;;5.13;;
65567;SDS011;52211;50.154;8.682;2023-06-26T05:16:00;6.37;;;5.77;;
65567;SDS011;52211;50.154;8.682;2023-06-26T05:18:29;6.67;;;5.20;;
65567;SDS011;52211;50.154;8.682;2023-06-26T05:21:01;7.13;;;5.47;;
65567;SDS011;52211;50.154;8.682;2023-06-26T05:23:31;6.20;;;5.23;;
65567;SDS011;52211;50.154;8.682;2023-06-26T05:26:02;8.33;;;5.97;;
65567;SDS011;52211;50.154;8.682;2023-06-26T05:28:32;7.60;;;6.00;;
65567;SDS011;52211;50.154;8.682;2023-06-26T05:31:04;6.43;;;5.80;;
65567;SDS011;52211;50.154;8.682;2023-06-26T05:33:34;6.57;;;5.67;;
65567;SDS011;52211;50.154;8.682;2023-06-26T05:36:04;6.50;;;5.60;;
65567;SDS011;52211;50.154;8.682;2023-06-26T05:38:37;5.70;;;5.20;;
65567;SDS011;52211;50.154;8.682;2023-06-26T05:41:07;5.93;;;5.43;;
65567;SDS011;52211;50.154;8.682;2023-06-26T05:43:34;8.27;;;5.53;;
65567;SDS011;52211;50.154;8.682;2023-06-26T05:46:03;5.70;;;5.17;;
65567;SDS011;52211;50.154;8.682;2023-06-26T05:48:32;6.00;;;5.40;;
65567;SDS011;52211;50.154;8.682;2023-06-26T05:51:01;6.50;;;5.90;;
65567;SDS011;52211;50.154;8.682;2023-06-26T05:53:35;7.43;;;5.87;;
65567;SDS011;52211;50.154;8.682;2023-06-26T05:56:04;6.20;;;5.60;;
65567;SDS011;52211;50.154;8.682;2023-06-26T05:58:34;6.00;;;5.37;;
65567;SDS011;52211;50.154;8.682;2023-06-26T06:01:04;6.17;;;5.03;;
65567;SDS011;52211;50.154;8.682;2023-06-26T06:03:31;6.47;;;5.03;;
65567;SDS011;52211;50.154;8.682;2023-06-26T06:06:00;6.50;;;5.17;;
65567;SDS011;52211;50.154;8.682;2023-06-26T06:08:29;6.23;;;5.43;;
65567;SDS011;52211;50.154;8.682;2023-06-26T06:11:01;5.67;;;5.13;;
65567;SDS011;52211;50.154;8.682;2023-06-26T06:13:28;6.00;;;5.40;;
65567;SDS011;52211;50.154;8.682;2023-06-26T06:16:01;6.27;;;5.40;;
65567;SDS011;52211;50.154;8.682;2023-06-26T06:18:28;6.60;;;4.57;;
65567;SDS011;52211;50.154;8.682;2023-06-26T06:20:55;7.60;;;4.97;;
65567;SDS011;52211;50.154;8.682;2023-06-26T06:23:22;5.93;;;5.00;;
65567;SDS011;52211;50.154;8.682;2023-06-26T06:25:51;6.03;;;5.37;;
65567;SDS011;52211;50.154;8.682;2023-06-26T06:28:18;5.73;;;5.23;;
65567;SDS011;52211;50.154;8.682;2023-06-26T06:30:49;5.60;;;4.97;;
65567;SDS011;52211;50.154;8.682;2023-06-26T06:33:17;5.97;;;5.37;;
65567;SDS011;52211;50.154;8.682;2023-06-26T06:35:46;6.00;;;5.37;;
65567;SDS011;52211;50.154;8.682;2023-06-26T06:38:16;5.47;;;4.93;;
65567;SDS011;52211;50.154;8.682;2023-06-26T06:40:48;5.77;;;5.27;;
65567;SDS011;52211;50.154;8.682;2023-06-26T06:43:18;6.50;;;4.87;;
65567;SDS011;52211;50.154;8.682;2023-06-26T06:45:45;5.03;;;4.53;;
65567;SDS011;52211;50.154;8.682;2023-06-26T06:48:12;6.43;;;4.93;;
65567;SDS011;52211;50.154;8.682;2023-06-26T06:50:39;5.30;;;4.80;;
65567;SDS011;52211;50.154;8.682;2023-06-26T06:53:09;5.00;;;4.50;;
65567;SDS011;52211;50.154;8.682;2023-06-26T06:55:37;6.00;;;5.00;;
65567;SDS011;52211;50.154;8.682;2023-06-26T06:58:08;5.80;;;5.20;;
65567;SDS011;52211;50.154;8.682;2023-06-26T07:00:35;7.33;;;6.00;;
65567;SDS011;52211;50.154;8.682;2023-06-26T07:03:06;6.43;;;5.70;;
65567;SDS011;52211;50.154;8.682;2023-06-26T07:05:33;5.83;;;4.73;;
65567;SDS011;52211;50.154;8.682;2023-06-26T07:08:03;5.07;;;4.57;;
65567;SDS011;52211;50.154;8.682;2023-06-26T07:10:32;7.50;;;4.83;;
65567;SDS011;52211;50.154;8.682;2023-06-26T07:12:59;5.27;;;4.67;;
65567;SDS011;52211;50.154;8.682;2023-06-26T07:15:29;6.77;;;5.10;;
65567;SDS011;52211;50.154;8.682;2023-06-26T07:17:57;5.20;;;4.43;;
65567;SDS011;52211;50.154;8.682;2023-06-26T07:20:27;5.57;;;4.43;;
65567;SDS011;52211;50.154;8.682;2023-06-26T07:22:54;6.10;;;5.17;;
65567;SDS011;52211;50.154;8.682;2023-06-26T07:25:21;4.90;;;4.50;;
65567;SDS011;52211;50.154;8.682;2023-06-26T07:27:48;5.10;;;4.70;;
65567;SDS011;52211;50.154;8.682;2023-06-26T07:30:16;4.73;;;4.33;;
65567;SDS011;52211;50.154;8.682;2023-06-26T07:32:44;5.17;;;4.67;;
65567;SDS011;52211;50.154;8.682;2023-06-26T07:35:16;5.43;;;4.93;;
65567;SDS011;52211;50.154;8.682;2023-06-26T07:37:43;4.60;;;4.20;;
65567;SDS011;52211;50.154;8.682;2023-06-26T07:40:12;5.07;;;4.50;;
65567;SDS011;52211;50.154;8.682;2023-06-26T07:42:39;5.20;;;4.70;;
65567;SDS011;52211;50.154;8.682;2023-06-26T07:45:09;5.37;;;4.87;;
65567;SDS011;52211;50.154;8.682;2023-06-26T07:47:43;4.83;;;4.33;;
65567;SDS011;52211;50.154;8.682;2023-06-26T07:50:15;4.87;;;4.37;;
65567;SDS011;52211;50.154;8.682;2023-06-26T07:52:48;5.77;;;5.00;;
65567;SDS011;52211;50.154;8.682;2023-06-26T07:55:16;5.83;;;4.70;;
65567;SDS011;52211;50.154;8.682;2023-06-26T07:57:50;4.73;;;4.33;;
65567;SDS011;52211;50.154;8.682;2023-06-26T08:00:21;5.17;;;4.57;;
65567;SDS011;52211;50.154;8.682;2023-06-26T08:02:53;4.33;;;3.93;;
65567;SDS011;52211;50.154;8.682;2023-06-26T08:05:25;4.87;;;4.47;;
65567;SDS011;52211;50.154;8.682;2023-06-26T08:07:54;5.40;;;4.30;;
65567;SDS011;52211;50.154;8.682;2023-06-26T08:10:21;4.57;;;4.13;;
65567;SDS011;52211;50.154;8.682;2023-06-26T08:12:49;4.37;;;3.97;;
65567;SDS011;52211;50.154;8.682;2023-06-26T08:15:21;4.40;;;3.97;;
65567;SDS011;52211;50.154;8.682;2023-06-26T08:17:53;4.37;;;4.00;;
65567;SDS011;52211;50.154;8.682;2023-06-26T08:20:20;4.67;;;4.17;;
65567;SDS011;52211;50.154;8.682;2023-06-26T08:22:49;4.50;;;4.10;;
65567;SDS011;52211;50.154;8.682;2023-06-26T08:25:20;4.50;;;4.10;;
65567;SDS011;52211;50.154;8.682;2023-06-26T08:27:47;5.73;;;4.90;;
65567;SDS011;52211;50.154;8.682;2023-06-26T08:30:14;7.27;;;5.40;;
65567;SDS011;52211;50.154;8.682;2023-06-26T08:32:46;6.03;;;4.23;;
65567;SDS011;52211;50.154;8.682;2023-06-26T08:35:13;4.80;;;4.30;;
65567;SDS011;52211;50.154;8.682;2023-06-26T08:37:40;6.77;;;4.83;;
65567;SDS011;52211;50.154;8.682;2023-06-26T08:40:07;4.40;;;4.00;;
65567;SDS011;52211;50.154;8.682;2023-06-26T08:42:34;4.90;;;4.43;;
65567;SDS011;52211;50.154;8.682;2023-06-26T08:45:04;5.17;;;4.33;;
65567;SDS011;52211;50.154;8.682;2023-06-26T08:47:33;5.60;;;4.57;;
65567;SDS011;52211;50.154;8.682;2023-06-26T08:50:07;4.47;;;3.97;;
65567;SDS011;52211;50.154;8.682;2023-06-26T08:55:41;5.60;;;4.13;;
65567;SDS011;52211;50.154;8.682;2023-06-26T08:58:12;6.23;;;4.47;;
65567;SDS011;52211;50.154;8.682;2023-06-26T09:00:44;5.00;;;4.50;;
65567;SDS011;52211;50.154;8.682;2023-06-26T09:03:12;5.27;;;4.47;;
65567;SDS011;52211;50.154;8.682;2023-06-26T09:05:42;4.80;;;4.27;;
65567;SDS011;52211;50.154;8.682;2023-06-26T09:08:11;5.57;;;4.00;;
65567;SDS011;52211;50.154;8.682;2023-06-26T09:10:39;5.23;;;4.73;;
65567;SDS011;52211;50.154;8.682;2023-06-26T09:13:14;4.63;;;4.23;;
65567;SDS011;52211;50.154;8.682;2023-06-26T09:15:57;4.07;;;3.77;;
65567;SDS011;52211;50.154;8.682;2023-06-26T09:18:30;5.00;;;4.27;;
65567;SDS011;52211;50.154;8.682;2023-06-26T09:20:59;4.67;;;4.27;;
65567;SDS011;52211;50.154;8.682;2023-06-26T09:23:26;4.57;;;4.17;;
65567;SDS011;52211;50.154;8.682;2023-06-26T09:25:56;5.20;;;4.70;;
65567;SDS011;52211;50.154;8.682;2023-06-26T09:28:27;4.93;;;4.30;;
65567;SDS011;52211;50.154;8.682;2023-06-26T09:31:00;5.23;;;4.10;;
65567;SDS011;52211;50.154;8.682;2023-06-26T09:33:34;4.90;;;4.43;;
65567;SDS011;52211;50.154;8.682;2023-06-26T09:36:18;4.53;;;4.13;;
65567;SDS011;52211;50.154;8.682;2023-06-26T09:38:51;4.10;;;3.70;;
65567;SDS011;52211;50.154;8.682;2023-06-26T09:41:23;4.37;;;3.97;;
65567;SDS011;52211;50.154;8.682;2023-06-26T09:43:51;4.43;;;4.03;;
65567;SDS011;52211;50.154;8.682;2023-06-26T09:48:58;4.43;;;4.03;;
65567;SDS011;52211;50.154;8.682;2023-06-26T09:51:28;3.73;;;3.50;;
65567;SDS011;52211;50.154;8.682;2023-06-26T09:54:00;3.83;;;3.53;;
65567;SDS011;52211;50.154;8.682;2023-06-26T09:56:29;3.97;;;3.60;;
65567;SDS011;52211;50.154;8.682;2023-06-26T09:58:59;4.10;;;3.70;;
65567;SDS011;52211;50.154;8.682;2023-06-26T10:01:31;5.23;;;4.50;;
65567;SDS011;52211;50.154;8.682;2023-06-26T10:03:59;4.20;;;3.80;;
65567;SDS011;52211;50.154;8.682;2023-06-26T10:06:33;4.57;;;4.10;;
65567;SDS011;52211;50.154;8.682;2023-06-26T10:09:05;4.60;;;3.53;;
65567;SDS011;52211;50.154;8.682;2023-06-26T10:14:29;4.03;;;3.73;;
65567;SDS011;52211;50.154;8.682;2023-06-26T10:17:12;4.30;;;3.90;;
65567;SDS011;52211;50.154;8.682;2023-06-26T10:19:48;4.13;;;3.83;;
65567;SDS011;52211;50.154;8.682;2023-06-26T10:22:18;4.37;;;4.03;;
65567;SDS011;52211;50.154;8.682;2023-06-26T10:24:53;4.90;;;4.40;;
65567;SDS011;52211;50.154;8.682;2023-06-26T10:27:32;4.10;;;3.70;;
65567;SDS011;52211;50.154;8.682;2023-06-26T10:30:13;4.43;;;4.13;;
65567;SDS011;52211;50.154;8.682;2023-06-26T10:32:54;4.40;;;3.83;;
65567;SDS011;52211;50.154;8.682;2023-06-26T10:35:25;4.00;;;3.70;;
65567;SDS011;52211;50.154;8.682;2023-06-26T10:37:54;4.87;;;4.47;;
65567;SDS011;52211;50.154;8.682;2023-06-26T10:40:44;4.67;;;4.27;;
65567;SDS011;52211;50.154;8.682;2023-06-26T10:43:14;3.73;;;3.47;;
65567;SDS011;52211;50.154;8.682;2023-06-26T10:45:46;5.13;;;3.77;;
65567;SDS011;52211;50.154;8.682;2023-06-26T10:48:23;4.43;;;4.03;;
65567;SDS011;52211;50.154;8.682;2023-06-26T10:51:00;3.67;;;3.37;;
65567;SDS011;52211;50.154;8.682;2023-06-26T10:53:46;3.63;;;3.33;;
65567;SDS011;52211;50.154;8.682;2023-06-26T10:59:18;4.83;;;4.00;;
65567;SDS011;52211;50.154;8.682;2023-06-26T11:02:00;5.70;;;4.23;;
65567;SDS011;52211;50.154;8.682;2023-06-26T11:04:37;6.90;;;3.50;;
65567;SDS011;52211;50.154;8.682;2023-06-26T11:07:19;4.00;;;3.70;;
65567;SDS011;52211;50.154;8.682;2023-06-26T11:10:00;6.17;;;3.87;;
65567;SDS011;52211;50.154;8.682;2023-06-26T11:15:10;3.43;;;3.13;;
65567;SDS011;52211;50.154;8.682;2023-06-26T11:17:39;4.10;;;3.73;;
65567;SDS011;52211;50.154;8.682;2023-06-26T11:20:12;3.83;;;3.53;;
65567;SDS011;52211;50.154;8.682;2023-06-26T11:22:41;4.13;;;3.73;;
65567;SDS011;52211;50.154;8.682;2023-06-26T11:25:13;4.65;;;4.22;;
65567;SDS011;52211;50.154;8.682;2023-06-26T11:27:40;3.88;;;3.58;;
65567;SDS011;52211;50.154;8.682;2023-06-26T11:30:23;4.17;;;3.80;;
65567;SDS011;52211;50.154;8.682;2023-06-26T11:32:51;4.13;;;3.70;;
65567;SDS011;52211;50.154;8.682;2023-06-26T11:35:31;4.20;;;3.40;;
65567;SDS011;52211;50.154;8.682;2023-06-26T11:38:01;4.45;;;4.05;;
65567;SDS011;52211;50.154;8.682;2023-06-26T11:40:34;4.70;;;3.30;;
65567;SDS011;52211;50.154;8.682;2023-06-26T11:43:07;4.55;;;4.15;;
65567;SDS011;52211;50.154;8.682;2023-06-26T11:45:38;3.85;;;3.55;;
65567;SDS011;52211;50.154;8.682;2023-06-26T11:48:07;3.65;;;3.35;;
65567;SDS011;52211;50.154;8.682;2023-06-26T11:50:37;4.78;;;3.63;;
65567;SDS011;52211;50.154;8.682;2023-06-26T11:53:05;4.00;;;3.28;;
65567;SDS011;52211;50.154;8.682;2023-06-26T11:55:40;3.60;;;3.30;;
65567;SDS011;52211;50.154;8.682;2023-06-26T11:58:12;5.47;;;3.83;;
65567;SDS011;52211;50.154;8.682;2023-06-26T12:00:47;3.45;;;3.20;;
65567;SDS011;52211;50.154;8.682;2023-06-26T12:03:14;4.28;;;3.88;;
65567;SDS011;52211;50.154;8.682;2023-06-26T12:05:44;3.75;;;3.05;;
65567;SDS011;52211;50.154;8.682;2023-06-26T12:08:11;3.70;;;3.40;;
65567;SDS011;52211;50.154;8.682;2023-06-26T12:10:44;3.75;;;3.45;;
65567;SDS011;52211;50.154;8.682;2023-06-26T12:13:12;3.63;;;3.33;;
65567;SDS011;52211;50.154;8.682;2023-06-26T12:15:44;3.55;;;3.25;;
65567;SDS011;52211;50.154;8.682;2023-06-26T12:18:11;4.63;;;4.22;;
65567;SDS011;52211;50.154;8.682;2023-06-26T12:20:39;4.32;;;3.45;;
65567;SDS011;52211;50.154;8.682;2023-06-26T12:23:13;4.32;;;3.92;;
65567;SDS011;52211;50.154;8.682;2023-06-26T12:25:40;3.83;;;3.53;;
65567;SDS011;52211;50.154;8.682;2023-06-26T12:28:18;3.47;;;3.17;;
65567;SDS011;52211;50.154;8.682;2023-06-26T12:31:09;3.42;;;3.10;;
65567;SDS011;52211;50.154;8.682;2023-06-26T12:33:51;5.28;;;3.40;;
65567;SDS011;52211;50.154;8.682;2023-06-26T12:36:23;4.20;;;3.78;;
65567;SDS011;52211;50.154;8.682;2023-06-26T12:38:52;5.82;;;3.40;;
65567;SDS011;52211;50.154;8.682;2023-06-26T12:41:23;3.67;;;3.38;;
65567;SDS011;52211;50.154;8.682;2023-06-26T12:43:55;3.60;;;3.38;;
65567;SDS011;52211;50.154;8.682;2023-06-26T12:46:34;2.85;;;2.65;;
65567;SDS011;52211;50.154;8.682;2023-06-26T12:49:04;4.05;;;3.53;;
65567;SDS011;52211;50.154;8.682;2023-06-26T12:51:51;4.78;;;3.28;;
65567;SDS011;52211;50.154;8.682;2023-06-26T12:54:20;4.32;;;3.00;;
65567;SDS011;52211;50.154;8.682;2023-06-26T12:56:47;3.40;;;3.10;;
65567;SDS011;52211;50.154;8.682;2023-06-26T12:59:14;3.25;;;3.00;;
65567;SDS011;52211;50.154;8.682;2023-06-26T13:01:44;4.45;;;3.17;;
65567;SDS011;52211;50.154;8.682;2023-06-26T13:04:13;3.50;;;3.20;;
65567;SDS011;52211;50.154;8.682;2023-06-26T13:06:46;5.78;;;3.25;;
65567;SDS011;52211;50.154;8.682;2023-06-26T13:09:16;3.13;;;2.90;;
65567;SDS011;52211;50.154;8.682;2023-06-26T13:11:47;4.13;;;2.85;;
65567;SDS011;52211;50.154;8.682;2023-06-26T13:14:14;3.83;;;2.85;;
65567;SDS011;52211;50.154;8.682;2023-06-26T13:16:41;3.95;;;3.60;;
65567;SDS011;52211;50.154;8.682;2023-06-26T13:19:08;3.67;;;3.25;;
65567;SDS011;52211;50.154;8.682;2023-06-26T13:21:39;3.63;;;3.00;;
65567;SDS011;52211;50.154;8.682;2023-06-26T13:24:06;4.07;;;2.92;;
65567;SDS011;52211;50.154;8.682;2023-06-26T13:26:35;3.10;;;2.90;;
65567;SDS011;52211;50.154;8.682;2023-06-26T13:29:06;5.13;;;3.75;;
65567;SDS011;52211;50.154;8.682;2023-06-26T13:31:35;5.45;;;3.25;;
65567;SDS011;52211;50.154;8.682;2023-06-26T13:34:07;3.70;;;3.20;;
65567;SDS011;52211;50.154;8.682;2023-06-26T13:36:34;3.50;;;3.20;;
65567;SDS011;52211;50.154;8.682;2023-06-26T13:39:03;3.65;;;3.35;;
65567;SDS011;52211;50.154;8.682;2023-06-26T13:41:34;3.47;;;3.17;;
65567;SDS011;52211;50.154;8.682;2023-06-26T13:44:01;3.10;;;2.80;;
65567;SDS011;52211;50.154;8.682;2023-06-26T13:46:47;3.10;;;2.80;;
65567;SDS011;52211;50.154;8.682;2023-06-26T13:49:18;2.72;;;2.53;;
65567;SDS011;52211;50.154;8.682;2023-06-26T13:51:49;2.75;;;2.55;;
65567;SDS011;52211;50.154;8.682;2023-06-26T13:54:18;2.70;;;2.30;;
65567;SDS011;52211;50.154;8.682;2023-06-26T13:56:52;3.95;;;2.50;;
65567;SDS011;52211;50.154;8.682;2023-06-26T13:59:26;2.50;;;2.30;;
65567;SDS011;52211;50.154;8.682;2023-06-26T14:01:56;3.33;;;2.60;;
65567;SDS011;52211;50.154;8.682;2023-06-26T14:04:25;2.15;;;2.03;;
65567;SDS011;52211;50.154;8.682;2023-06-26T14:06:52;2.30;;;2.10;;
65567;SDS011;52211;50.154;8.682;2023-06-26T14:09:19;2.72;;;1.90;;
65567;SDS011;52211;50.154;8.682;2023-06-26T14:11:49;1.88;;;1.77;;
65567;SDS011;52211;50.154;8.682;2023-06-26T14:14:20;2.20;;;2.00;;
65567;SDS011;52211;50.154;8.682;2023-06-26T14:16:53;2.53;;;2.10;;
65567;SDS011;52211;50.154;8.682;2023-06-26T14:19:20;3.28;;;2.58;;
65567;SDS011;52211;50.154;8.682;2023-06-26T14:21:49;2.88;;;2.30;;
65567;SDS011;52211;50.154;8.682;2023-06-26T14:24:15;3.05;;;2.25;;
65567;SDS011;52211;50.154;8.682;2023-06-26T14:26:42;4.50;;;2.28;;
65567;SDS011;52211;50.154;8.682;2023-06-26T14:29:09;1.80;;;1.65;;
65567;SDS011;52211;50.154;8.682;2023-06-26T14:31:39;1.85;;;1.73;;
65567;SDS011;52211;50.154;8.682;2023-06-26T14:34:05;3.47;;;1.73;;
65567;SDS011;52211;50.154;8.682;2023-06-26T14:36:35;1.40;;;1.30;;
65567;SDS011;52211;50.154;8.682;2023-06-26T14:39:04;2.75;;;1.55;;
65567;SDS011;52211;50.154;8.682;2023-06-26T14:41:33;1.50;;;1.40;;
65567;SDS011;52211;50.154;8.682;2023-06-26T14:44:03;2.83;;;1.92;;
65567;SDS011;52211;50.154;8.682;2023-06-26T14:46:37;3.13;;;2.20;;
65567;SDS011;52211;50.154;8.682;2023-06-26T14:49:07;3.53;;;1.95;;
65567;SDS011;52211;50.154;8.682;2023-06-26T14:51:34;2.05;;;1.50;;
65567;SDS011;52211;50.154;8.682;2023-06-26T14:54:01;1.85;;;1.48;;
65567;SDS011;52211;50.154;8.682;2023-06-26T14:56:28;2.03;;;1.83;;
65567;SDS011;52211;50.154;8.682;2023-06-26T14:58:57;1.92;;;1.70;;
65567;SDS011;52211;50.154;8.682;2023-06-26T15:01:30;2.95;;;1.60;;
65567;SDS011;52211;50.154;8.682;2023-06-26T15:04:04;3.65;;;1.50;;
65567;SDS011;52211;50.154;8.682;2023-06-26T15:06:34;2.08;;;1.33;;
65567;SDS011;52211;50.154;8.682;2023-06-26T15:09:01;2.92;;;1.65;;
65567;SDS011;52211;50.154;8.682;2023-06-26T15:11:32;1.77;;;1.20;;
65567;SDS011;52211;50.154;8.682;2023-06-26T15:14:02;1.58;;;1.17;;
65567;SDS011;52211;50.154;8.682;2023-06-26T15:16:29;2.80;;;1.35;;
65567;SDS011;52211;50.154;8.682;2023-06-26T15:18:56;3.03;;;1.25;;
65567;SDS011;52211;50.154;8.682;2023-06-26T15:21:28;1.80;;;1.52;;
65567;SDS011;52211;50.154;8.682;2023-06-26T15:24:02;3.10;;;1.83;;
65567;SDS011;52211;50.154;8.682;2023-06-26T15:26:31;4.80;;;3.60;;